Time;durP1;ratioP1;P1;durP2;ratioP2;P2;SDS_P1;SDS_P2;PMS_P1;PMS_P2;Temp;Humidity;BMP_temperature;BMP_pressure;BME280_temperature;BME280_humidity;BME280_pressure;Samples;Min_cycle;Max_cycle;Signal;HPM_P1;HPM_P2
2022/03/08 00:02:03;;;;;;;12.90;11.60;;;20.90;62.20;;;;;;6045962;28;94416;-68
2022/03/08 00:05:06;;;;;;;12.38;11.10;;;20.80;62.10;;;;;;6034927;28;94136;-68
2022/03/08 00:08:08;;;;;;;11.65;10.45;;;20.80;62.20;;;;;;6046186;28;95109;-68
2022/03/08 00:11:10;;;;;;;12.60;11.15;;;20.80;62.20;;;;;;6054014;28;94150;-68
2022/03/08 00:14:13;;;;;;;12.80;11.50;;;20.80;62.20;;;;;;6053972;28;94230;-68
2022/03/08 00:17:16;;;;;;;12.98;11.68;;;20.80;62.20;;;;;;6053366;28;94601;-68
2022/03/08 00:20:19;;;;;;;13.00;11.60;;;20.80;62.20;;;;;;6033167;28;94511;-69
2022/03/08 00:23:21;;;;;;;12.48;11.20;;;20.80;62.20;;;;;;6047665;28;94255;-68
2022/03/08 00:26:23;;;;;;;12.52;11.32;;;20.80;62.20;;;;;;6034770;28;94237;-68
2022/03/08 00:29:26;;;;;;;12.88;11.52;;;20.80;62.20;;;;;;6033583;28;93399;-68
2022/03/08 00:32:29;;;;;;;13.68;12.27;;;20.80;62.20;;;;;;6057792;28;94485;-68
2022/03/08 00:35:31;;;;;;;12.85;11.55;;;20.80;62.20;;;;;;6052941;28;93112;-68
2022/03/08 00:38:33;;;;;;;13.05;11.02;;;20.80;62.20;;;;;;6068730;28;95044;-68
2022/03/08 00:41:35;;;;;;;13.55;12.15;;;20.80;61.90;;;;;;6061813;28;94255;-68
2022/03/08 00:44:37;;;;;;;12.95;11.65;;;20.70;61.90;;;;;;6048230;28;94079;-68
2022/03/08 00:47:41;;;;;;;12.98;11.68;;;20.70;62.00;;;;;;6051524;28;92959;-68
2022/03/08 00:50:43;;;;;;;13.63;12.20;;;20.70;62.10;;;;;;6047755;28;94043;-68
2022/03/08 00:53:45;;;;;;;13.95;12.52;;;20.70;62.10;;;;;;6061480;28;94094;-68
2022/03/08 00:56:48;;;;;;;13.65;12.15;;;20.70;62.10;;;;;;6041139;28;94438;-68
2022/03/08 00:59:50;;;;;;;13.63;12.27;;;20.70;62.20;;;;;;6038228;28;93667;-68
2022/03/08 01:02:53;;;;;;;14.10;12.35;;;20.70;62.20;;;;;;6037151;28;94051;-68
2022/03/08 01:05:56;;;;;;;13.35;12.05;;;20.70;62.20;;;;;;6038994;28;94101;-68
2022/03/08 01:08:58;;;;;;;13.82;12.38;;;20.70;62.20;;;;;;6047249;28;95061;-68
2022/03/08 01:12:00;;;;;;;14.02;12.45;;;20.70;62.20;;;;;;6059207;28;94050;-68
2022/03/08 01:15:04;;;;;;;13.75;12.05;;;20.70;62.20;;;;;;6055861;28;94192;-68
2022/03/08 01:18:07;;;;;;;14.20;12.70;;;20.70;62.20;;;;;;6049883;28;94171;-68
2022/03/08 01:21:11;;;;;;;14.07;12.18;;;20.70;62.20;;;;;;6050395;28;94019;-68
2022/03/08 01:24:13;;;;;;;14.48;12.68;;;20.70;62.20;;;;;;6037157;28;93940;-68
2022/03/08 01:27:16;;;;;;;13.85;12.48;;;20.70;62.20;;;;;;6044675;28;94225;-68
2022/03/08 01:30:21;;;;;;;14.05;12.65;;;20.70;62.10;;;;;;6048118;28;93415;-67
2022/03/08 01:33:24;;;;;;;14.35;12.85;;;20.70;62.20;;;;;;6041697;28;94200;-68
2022/03/08 01:36:27;;;;;;;13.85;12.50;;;20.70;62.20;;;;;;6058496;28;94243;-68
2022/03/08 01:39:29;;;;;;;13.82;12.15;;;20.70;62.20;;;;;;6036901;28;95418;-68
2022/03/08 01:42:32;;;;;;;14.13;12.68;;;20.70;62.60;;;;;;6038717;28;93037;-68
2022/03/08 01:45:34;;;;;;;14.00;12.68;;;20.60;62.20;;;;;;6056660;28;94329;-68
2022/03/08 01:48:37;;;;;;;13.80;12.40;;;20.60;62.10;;;;;;6052828;28;94086;-68
2022/03/08 01:51:42;;;;;;;13.35;12.00;;;20.70;62.20;;;;;;6043360;28;94146;-68
2022/03/08 01:54:45;;;;;;;13.77;12.40;;;20.60;62.20;;;;;;6048558;28;94608;-68
2022/03/08 01:57:50;;;;;;;13.77;12.45;;;20.60;62.20;;;;;;6055913;28;94182;-68
2022/03/08 02:00:52;;;;;;;13.20;11.90;;;20.60;62.30;;;;;;6049256;28;93363;-68
2022/03/08 02:03:56;;;;;;;13.25;11.85;;;20.60;62.20;;;;;;6035624;28;94238;-68
2022/03/08 02:06:58;;;;;;;14.55;12.73;;;20.60;62.20;;;;;;6050301;28;94391;-68
2022/03/08 02:10:01;;;;;;;13.10;11.80;;;20.60;62.20;;;;;;6046806;28;94923;-68
2022/03/08 02:13:04;;;;;;;13.45;12.15;;;20.60;62.20;;;;;;6041157;28;92922;-68
2022/03/08 02:16:06;;;;;;;13.23;11.82;;;20.60;62.20;;;;;;6059853;28;94091;-68
2022/03/08 02:19:13;;;;;;;13.48;12.10;;;20.60;62.20;;;;;;6061234;28;94265;-68
2022/03/08 02:22:17;;;;;;;12.88;11.57;;;20.60;62.20;;;;;;6041677;28;93077;-68
2022/03/08 02:25:20;;;;;;;12.82;11.55;;;20.60;62.20;;;;;;6044577;28;94316;-68
2022/03/08 02:28:23;;;;;;;13.25;11.85;;;20.60;62.20;;;;;;6060254;28;94222;-68
2022/03/08 02:31:25;;;;;;;12.48;11.18;;;20.60;62.20;;;;;;6054921;28;93550;-68
2022/03/08 02:34:27;;;;;;;12.82;11.52;;;20.50;62.20;;;;;;6052258;28;94615;-68
2022/03/08 02:37:37;;;;;;;12.02;10.82;;;20.60;62.20;;;;;;6060339;28;94111;-68
2022/03/08 02:40:41;;;;;;;12.70;11.50;;;20.50;62.20;;;;;;6050534;28;95117;-68
2022/03/08 02:43:44;;;;;;;13.27;11.77;;;20.50;62.20;;;;;;6061125;28;94232;-68
2022/03/08 02:46:46;;;;;;;12.65;11.35;;;20.50;62.20;;;;;;6049006;28;94485;-68
2022/03/08 02:49:48;;;;;;;12.68;11.38;;;20.50;62.20;;;;;;6053243;28;93089;-68
2022/03/08 02:52:53;;;;;;;12.77;11.48;;;20.50;62.30;;;;;;6053825;28;94085;-68
2022/03/08 02:55:55;;;;;;;12.88;11.57;;;20.50;62.20;;;;;;6051961;28;93944;-68
2022/03/08 02:58:57;;;;;;;12.52;11.20;;;20.50;62.20;;;;;;6035309;28;94494;-67
2022/03/08 03:01:59;;;;;;;12.13;10.93;;;20.50;62.20;;;;;;6040892;28;93367;-68
2022/03/08 03:05:01;;;;;;;11.38;10.27;;;20.50;62.20;;;;;;6065580;28;93045;-68
2022/03/08 03:08:06;;;;;;;12.50;11.30;;;20.50;62.20;;;;;;6064786;28;94220;-68
2022/03/08 03:11:08;;;;;;;11.60;10.50;;;20.50;62.20;;;;;;6053218;28;95060;-68
2022/03/08 03:14:10;;;;;;;12.27;11.00;;;20.50;62.20;;;;;;6048051;28;94107;-68
2022/03/08 03:17:12;;;;;;;11.35;10.25;;;20.50;62.20;;;;;;6048021;28;94142;-68
2022/03/08 03:20:16;;;;;;;11.88;10.68;;;20.50;62.20;;;;;;6048961;28;94100;-68
2022/03/08 03:23:20;;;;;;;11.32;10.23;;;20.50;62.20;;;;;;6047974;28;94124;-68
2022/03/08 03:26:22;;;;;;;11.23;10.13;;;20.50;62.20;;;;;;6033417;28;94152;-68
2022/03/08 03:29:24;;;;;;;10.75;9.75;;;20.50;62.20;;;;;;6046329;28;94432;-68
2022/03/08 03:32:26;;;;;;;11.30;10.18;;;20.50;62.20;;;;;;6050679;28;93509;-68
2022/03/08 03:35:28;;;;;;;11.15;10.05;;;20.50;62.40;;;;;;6039475;28;94195;-68
2022/03/08 03:38:31;;;;;;;11.15;9.98;;;20.40;62.20;;;;;;6040230;28;94094;-68
2022/03/08 03:41:34;;;;;;;10.85;9.82;;;20.40;62.20;;;;;;6060443;28;95123;-68
2022/03/08 03:44:36;;;;;;;10.35;9.35;;;20.40;62.20;;;;;;6046917;28;94223;-68
2022/03/08 03:47:38;;;;;;;10.63;9.63;;;20.40;62.30;;;;;;6058534;28;94244;-68
2022/03/08 03:50:41;;;;;;;11.07;9.70;;;20.40;62.30;;;;;;6059672;28;95541;-68
2022/03/08 03:53:45;;;;;;;10.70;9.60;;;20.40;62.40;;;;;;6050370;28;94145;-68
2022/03/08 03:56:47;;;;;;;10.30;9.40;;;20.40;62.30;;;;;;6060446;28;93033;-68
2022/03/08 03:59:49;;;;;;;10.20;9.15;;;20.40;62.20;;;;;;6057867;28;94120;-68
2022/03/08 04:02:51;;;;;;;10.30;9.30;;;20.40;62.20;;;;;;6050379;28;93397;-68
2022/03/08 04:05:53;;;;;;;10.40;9.40;;;20.40;62.20;;;;;;6055807;28;93856;-68
2022/03/08 04:08:57;;;;;;;9.38;8.48;;;20.40;62.20;;;;;;6055249;28;94251;-67
2022/03/08 04:11:59;;;;;;;9.43;8.52;;;20.40;62.20;;;;;;6044174;28;94949;-68
2022/03/08 04:15:01;;;;;;;10.20;9.20;;;20.40;62.30;;;;;;6043362;28;94020;-68
2022/03/08 04:18:03;;;;;;;9.88;8.88;;;20.40;62.30;;;;;;6051444;28;94056;-68
2022/03/08 04:21:05;;;;;;;10.23;8.95;;;20.40;62.30;;;;;;6043927;28;94152;-68
2022/03/08 04:24:09;;;;;;;9.65;8.75;;;20.40;62.40;;;;;;6041579;28;94774;-67
2022/03/08 04:27:11;;;;;;;9.55;8.65;;;20.40;62.40;;;;;;6050284;28;93122;-68
2022/03/08 04:30:13;;;;;;;9.52;8.52;;;20.40;62.40;;;;;;6054979;28;94119;-67
2022/03/08 04:33:15;;;;;;;9.52;8.52;;;20.40;62.40;;;;;;6051337;28;93787;-68
2022/03/08 04:36:17;;;;;;;9.32;8.45;;;20.40;62.40;;;;;;6051668;28;94093;-68
2022/03/08 04:39:21;;;;;;;9.20;8.32;;;20.30;62.30;;;;;;6048472;28;94152;-68
2022/03/08 04:42:23;;;;;;;8.60;7.80;;;20.40;62.30;;;;;;6057307;28;94736;-68
2022/03/08 04:45:25;;;;;;;9.40;8.18;;;20.40;62.30;;;;;;6045678;28;94032;-68
2022/03/08 04:48:27;;;;;;;8.35;7.55;;;20.40;62.30;;;;;;6047828;28;94449;-68
2022/03/08 04:51:29;;;;;;;8.77;7.97;;;20.40;62.30;;;;;;6049345;28;94150;-68
2022/03/08 04:54:33;;;;;;;9.38;7.68;;;20.40;62.40;;;;;;6058504;28;94109;-68
2022/03/08 04:57:35;;;;;;;8.35;7.55;;;20.40;62.30;;;;;;6033912;28;94592;-68
2022/03/08 05:00:37;;;;;;;7.82;7.13;;;20.40;62.20;;;;;;6044624;28;94089;-68
2022/03/08 05:03:39;;;;;;;8.15;7.35;;;20.50;62.30;;;;;;6056626;28;93892;-68
2022/03/08 05:06:41;;;;;;;8.38;7.47;;;20.50;62.30;;;;;;6038430;28;93379;-68
2022/03/08 05:09:45;;;;;;;8.10;7.30;;;20.50;62.20;;;;;;6041402;28;94266;-68
2022/03/08 05:12:47;;;;;;;8.05;7.10;;;20.50;62.20;;;;;;6054950;28;96395;-68
2022/03/08 05:15:49;;;;;;;7.63;6.93;;;20.50;62.20;;;;;;6056681;28;94149;-68
2022/03/08 05:18:51;;;;;;;7.82;7.03;;;20.60;62.20;;;;;;6059413;28;94300;-68
2022/03/08 05:21:54;;;;;;;7.50;6.80;;;20.60;62.20;;;;;;6049626;28;93969;-68
2022/03/08 05:24:57;;;;;;;7.35;6.63;;;20.60;62.20;;;;;;6061976;28;94239;-68
2022/03/08 05:27:59;;;;;;;7.45;6.75;;;20.60;62.20;;;;;;6040035;28;94098;-68
2022/03/08 05:31:01;;;;;;;8.02;6.85;;;20.60;62.20;;;;;;6060398;28;92815;-67
2022/03/08 05:34:03;;;;;;;7.40;6.65;;;20.60;62.20;;;;;;6054258;28;93354;-68
2022/03/08 05:37:06;;;;;;;7.63;6.93;;;20.60;62.20;;;;;;6050021;28;94184;-67
2022/03/08 05:40:10;;;;;;;7.18;6.47;;;20.60;62.20;;;;;;6052510;28;94103;-68
2022/03/08 05:43:13;;;;;;;6.63;6.03;;;20.60;62.20;;;;;;6052039;28;95052;-68
2022/03/08 05:46:15;;;;;;;7.00;6.28;;;20.60;62.20;;;;;;6039842;28;94003;-68
2022/03/08 05:49:17;;;;;;;6.88;6.28;;;20.60;62.20;;;;;;6047076;28;94176;-68
2022/03/08 05:52:19;;;;;;;7.15;6.45;;;20.60;62.20;;;;;;6055237;28;94126;-68
2022/03/08 05:55:23;;;;;;;7.00;6.40;;;20.70;62.20;;;;;;6038682;28;94473;-67
2022/03/08 05:58:25;;;;;;;6.53;5.93;;;20.70;62.10;;;;;;6049463;28;92924;-67
2022/03/08 06:01:27;;;;;;;7.43;6.55;;;20.60;61.90;;;;;;6049472;28;94831;-67
2022/03/08 06:04:29;;;;;;;6.57;5.80;;;20.70;61.60;;;;;;6057462;28;93803;-67
2022/03/08 06:07:31;;;;;;;8.20;5.93;;;20.70;62.60;;;;;;6052330;28;94290;-67
2022/03/08 06:10:34;;;;;;;6.18;5.57;;;20.70;61.70;;;;;;6038544;28;96054;-67
2022/03/08 06:13:36;;;;;;;6.22;5.63;;;20.70;61.70;;;;;;6042552;28;95135;-67
2022/03/08 06:16:39;;;;;;;7.55;5.60;;;20.70;61.80;;;;;;6059411;28;94148;-67
2022/03/08 06:19:41;;;;;;;6.97;5.55;;;20.70;61.80;;;;;;6061002;28;94216;-67
2022/03/08 06:22:45;;;;;;;6.32;5.70;;;20.70;61.80;;;;;;6050360;28;94504;-67
2022/03/08 06:25:48;;;;;;;6.00;5.38;;;20.70;61.80;;;;;;6057481;28;94095;-68
2022/03/08 06:28:50;;;;;;;6.45;5.47;;;20.70;61.90;;;;;;6061178;28;94090;-67
2022/03/08 06:31:53;;;;;;;6.65;5.72;;;20.70;61.90;;;;;;6040411;28;94201;-68
2022/03/08 06:34:55;;;;;;;5.82;5.30;;;20.70;61.80;;;;;;6041128;28;93640;-68
2022/03/08 06:37:57;;;;;;;5.40;4.90;;;20.70;61.90;;;;;;6059049;28;94172;-67
2022/03/08 06:41:00;;;;;;;6.07;5.28;;;20.70;62.80;;;;;;6069771;28;94220;-68
2022/03/08 06:44:02;;;;;;;6.57;5.45;;;20.70;61.90;;;;;;6061607;28;95134;-68
2022/03/08 06:47:05;;;;;;;6.00;5.40;;;20.70;61.90;;;;;;6059102;28;94065;-68
2022/03/08 06:50:08;;;;;;;5.53;5.03;;;20.70;62.00;;;;;;6059459;28;92947;-67
2022/03/08 06:53:10;;;;;;;5.65;5.15;;;20.70;62.00;;;;;;6058859;28;94573;-68
2022/03/08 06:56:13;;;;;;;5.80;5.22;;;20.70;62.00;;;;;;6054860;28;94031;-67
2022/03/08 06:59:15;;;;;;;5.63;4.90;;;20.70;62.00;;;;;;6050374;28;94720;-68
2022/03/08 07:02:18;;;;;;;7.43;5.15;;;20.80;62.10;;;;;;6060867;28;94167;-67
2022/03/08 07:05:21;;;;;;;5.72;5.20;;;20.80;62.10;;;;;;6065993;28;92809;-68
2022/03/08 07:08:23;;;;;;;5.75;5.03;;;20.80;62.10;;;;;;6046828;28;94252;-67
2022/03/08 07:11:27;;;;;;;6.10;5.50;;;20.80;62.10;;;;;;6050409;28;92747;-68
2022/03/08 07:14:29;;;;;;;5.22;4.80;;;20.80;62.10;;;;;;6055374;28;95274;-67
2022/03/08 07:17:31;;;;;;;5.28;4.78;;;20.80;62.20;;;;;;6061135;28;94162;-67
2022/03/08 07:20:33;;;;;;;5.60;5.10;;;20.80;62.20;;;;;;6054852;28;93792;-68
2022/03/08 07:23:35;;;;;;;5.32;4.82;;;20.80;62.10;;;;;;6037648;28;94437;-68
2022/03/08 07:26:38;;;;;;;5.15;4.65;;;20.90;62.20;;;;;;6046334;28;94027;-68
2022/03/08 07:29:40;;;;;;;5.20;4.70;;;20.90;62.10;;;;;;6058611;28;94225;-67
2022/03/08 07:32:43;;;;;;;5.22;4.72;;;20.90;62.20;;;;;;6034952;28;94160;-68
2022/03/08 07:35:45;;;;;;;5.10;4.60;;;20.90;62.20;;;;;;6054501;28;93504;-67
2022/03/08 07:38:47;;;;;;;5.57;4.75;;;20.90;62.20;;;;;;6068863;28;94341;-67
2022/03/08 07:41:50;;;;;;;4.93;4.53;;;20.90;62.20;;;;;;6077346;28;94210;-67
2022/03/08 07:44:52;;;;;;;5.07;4.63;;;21.00;62.20;;;;;;6061479;28;95258;-68
2022/03/08 07:47:54;;;;;;;4.72;4.32;;;20.90;62.20;;;;;;6059236;28;94052;-67
2022/03/08 07:50:56;;;;;;;5.32;4.82;;;21.00;62.20;;;;;;6047721;28;94127;-67
2022/03/08 07:53:59;;;;;;;4.93;4.50;;;20.90;62.20;;;;;;6054048;28;94034;-68
2022/03/08 07:57:03;;;;;;;5.35;4.18;;;21.00;62.20;;;;;;6047991;28;92978;-67
2022/03/08 08:00:06;;;;;;;4.82;4.35;;;21.00;62.30;;;;;;6046116;28;94180;-68
2022/03/08 08:03:08;;;;;;;4.85;4.45;;;21.00;62.30;;;;;;6060269;28;92970;-67
2022/03/08 08:06:11;;;;;;;4.45;4.05;;;21.00;62.20;;;;;;6060935;28;94933;-68
2022/03/08 08:09:13;;;;;;;4.80;4.40;;;21.00;62.20;;;;;;6036600;28;94014;-68
2022/03/08 08:12:17;;;;;;;4.82;4.43;;;21.10;62.20;;;;;;6043566;28;94419;-67
2022/03/08 08:15:19;;;;;;;5.53;4.30;;;21.00;62.20;;;;;;6047334;28;95144;-67
2022/03/08 08:18:21;;;;;;;4.97;4.55;;;21.10;62.20;;;;;;6057830;28;94477;-68
2022/03/08 08:21:23;;;;;;;4.68;4.28;;;21.10;62.30;;;;;;6036788;29;92953;-68
2022/03/08 08:24:26;;;;;;;4.90;4.50;;;21.10;62.20;;;;;;6035050;28;94208;-67
2022/03/08 08:27:29;;;;;;;4.82;4.32;;;21.10;62.20;;;;;;6042375;28;94392;-67
2022/03/08 08:30:31;;;;;;;4.50;4.10;;;21.10;62.20;;;;;;6039715;28;94106;-67
2022/03/08 08:33:33;;;;;;;4.90;4.50;;;21.10;62.20;;;;;;6041196;28;94068;-67
2022/03/08 08:36:36;;;;;;;4.63;4.20;;;21.10;62.20;;;;;;6054155;28;93398;-67
2022/03/08 08:39:38;;;;;;;4.35;3.97;;;21.20;62.30;;;;;;6052996;28;94542;-68
2022/03/08 08:42:42;;;;;;;4.80;4.40;;;21.20;62.30;;;;;;6047868;28;94191;-67
2022/03/08 08:45:44;;;;;;;4.65;4.15;;;21.20;62.20;;;;;;6052838;28;95199;-67
2022/03/08 08:48:46;;;;;;;4.72;4.32;;;21.20;62.20;;;;;;6042433;28;93900;-68
2022/03/08 08:51:48;;;;;;;4.30;3.90;;;21.20;62.30;;;;;;6046266;28;94106;-67
2022/03/08 08:54:50;;;;;;;4.78;4.30;;;21.30;62.30;;;;;;6048216;28;94147;-67
2022/03/08 08:57:54;;;;;;;4.68;4.20;;;21.20;62.20;;;;;;6057725;28;94148;-68
2022/03/08 09:00:56;;;;;;;4.05;3.65;;;21.20;62.20;;;;;;6039599;28;94068;-67
2022/03/08 09:03:58;;;;;;;4.43;4.03;;;21.30;62.20;;;;;;6054972;28;94165;-68
2022/03/08 09:07:00;;;;;;;4.30;3.90;;;21.30;62.20;;;;;;6051372;28;93467;-67
2022/03/08 09:10:03;;;;;;;4.60;4.20;;;21.30;62.20;;;;;;6060947;28;94312;-67
2022/03/08 09:13:07;;;;;;;4.13;3.72;;;21.30;62.20;;;;;;6049765;28;94168;-67
2022/03/08 09:16:09;;;;;;;4.15;3.75;;;21.30;62.20;;;;;;6048099;28;93949;-67
2022/03/08 09:19:11;;;;;;;4.25;3.85;;;21.30;62.20;;;;;;6043728;28;94113;-68
2022/03/08 09:22:13;;;;;;;4.00;3.70;;;21.30;62.20;;;;;;6038819;28;94188;-68
2022/03/08 09:25:15;;;;;;;4.00;3.60;;;21.30;62.20;;;;;;6039633;28;94465;-68
2022/03/08 09:28:19;;;;;;;4.00;3.53;;;21.30;62.20;;;;;;6039579;28;92763;-67
2022/03/08 09:31:21;;;;;;;3.90;3.60;;;21.30;62.30;;;;;;6060813;28;94158;-67
2022/03/08 09:34:23;;;;;;;4.32;3.92;;;21.30;62.20;;;;;;6050596;28;94144;-68
2022/03/08 09:37:25;;;;;;;3.80;3.50;;;21.30;62.30;;;;;;6050417;28;93418;-67
2022/03/08 09:40:27;;;;;;;4.38;3.97;;;21.30;62.20;;;;;;6059756;28;94178;-68
2022/03/08 09:43:31;;;;;;;4.00;3.60;;;21.40;62.30;;;;;;6059481;28;95805;-67
2022/03/08 09:46:34;;;;;;;3.78;3.40;;;21.30;62.30;;;;;;6046310;28;95374;-68
2022/03/08 09:49:37;;;;;;;3.88;3.58;;;21.40;62.30;;;;;;6052645;28;94403;-68
2022/03/08 09:52:41;;;;;;;4.10;3.60;;;21.40;62.30;;;;;;6061839;28;94561;-68
2022/03/08 09:55:43;;;;;;;4.03;3.63;;;21.40;62.30;;;;;;6051913;28;96770;-68
2022/03/08 09:58:47;;;;;;;4.10;3.80;;;21.40;62.30;;;;;;6045081;28;94114;-68
2022/03/08 10:02:07;;;;;;;3.72;3.42;;;21.40;62.30;;;;;;6039993;28;94234;-68
2022/03/08 10:05:10;;;;;;;3.40;3.10;;;21.40;62.30;;;;;;6064513;28;94168;-67
2022/03/08 10:08:14;;;;;;;3.80;3.50;;;21.40;62.30;;;;;;6053586;28;92319;-67
2022/03/08 10:11:17;;;;;;;3.78;3.47;;;21.40;62.30;;;;;;6045353;28;93261;-68
2022/03/08 10:14:36;;;;;;;3.60;3.30;;;21.50;62.30;;;;;;6043133;28;94213;-67
2022/03/08 10:17:40;;;;;;;3.60;3.30;;;21.40;62.30;;;;;;6036681;28;95081;-67
2022/03/08 10:20:42;;;;;;;4.10;3.70;;;21.40;62.30;;;;;;6037522;28;94341;-68
2022/03/08 10:23:44;;;;;;;3.50;3.20;;;21.40;62.30;;;;;;6048660;28;94307;-68
2022/03/08 10:26:49;;;;;;;3.47;3.17;;;21.50;62.30;;;;;;6051162;28;94124;-68
2022/03/08 10:30:01;;;;;;;3.55;3.25;;;21.50;62.30;;;;;;6050580;28;94075;-67
2022/03/08 10:33:03;;;;;;;3.50;3.20;;;21.50;62.40;;;;;;6059186;28;94660;-68
2022/03/08 10:36:13;;;;;;;3.53;3.22;;;21.50;62.30;;;;;;6061206;28;93058;-67
2022/03/08 10:39:16;;;;;;;3.60;3.30;;;21.50;62.30;;;;;;6065015;28;93150;-68
2022/03/08 10:42:23;;;;;;;3.67;3.38;;;21.50;62.30;;;;;;6048193;28;94253;-67
2022/03/08 10:45:28;;;;;;;3.80;3.13;;;21.50;62.30;;;;;;6054547;28;93062;-67
2022/03/08 10:48:36;;;;;;;3.50;3.20;;;21.50;62.30;;;;;;6054172;28;95114;-68
2022/03/08 10:51:38;;;;;;;4.03;3.47;;;21.50;62.30;;;;;;6059924;28;94495;-67
2022/03/08 10:54:40;;;;;;;3.60;3.30;;;21.50;62.30;;;;;;6057815;28;94083;-67
2022/03/08 10:57:44;;;;;;;3.25;2.95;;;21.50;62.20;;;;;;6049745;28;94192;-68
2022/03/08 11:00:51;;;;;;;3.45;3.15;;;21.50;62.30;;;;;;6047131;28;94339;-68
2022/03/08 11:03:58;;;;;;;3.35;3.05;;;21.50;62.20;;;;;;6047563;28;94134;-68
2022/03/08 11:07:00;;;;;;;3.30;3.00;;;21.60;62.30;;;;;;6047010;28;94167;-68
2022/03/08 11:10:04;;;;;;;3.17;2.88;;;21.50;62.20;;;;;;6038668;28;93882;-68
2022/03/08 11:13:08;;;;;;;3.35;3.05;;;21.60;62.30;;;;;;6057362;28;94162;-68
2022/03/08 11:16:12;;;;;;;3.20;2.90;;;21.50;62.20;;;;;;6058440;28;94098;-67
2022/03/08 11:19:15;;;;;;;3.30;3.00;;;21.60;62.30;;;;;;6058997;28;95687;-68
2022/03/08 11:22:19;;;;;;;3.20;2.90;;;21.60;62.30;;;;;;6058371;28;94027;-68
2022/03/08 11:25:21;;;;;;;3.15;2.90;;;21.50;62.20;;;;;;6055526;28;94129;-68
2022/03/08 11:28:23;;;;;;;3.15;2.85;;;21.60;62.30;;;;;;6039995;28;94082;-67
2022/03/08 11:31:32;;;;;;;3.60;3.30;;;21.50;62.30;;;;;;6045703;28;94053;-68
2022/03/08 11:34:42;;;;;;;3.28;2.97;;;21.60;62.30;;;;;;6036100;28;94080;-68
2022/03/08 11:37:48;;;;;;;3.20;2.90;;;21.60;62.30;;;;;;6046113;28;94176;-67
2022/03/08 11:40:53;;;;;;;3.78;3.00;;;21.60;62.30;;;;;;6057854;28;93380;-68
2022/03/08 11:43:57;;;;;;;3.00;2.70;;;21.60;62.30;;;;;;6049538;28;94339;-67
2022/03/08 11:47:09;;;;;;;3.05;2.85;;;21.60;62.30;;;;;;6057779;28;94587;-68
2022/03/08 11:50:21;;;;;;;3.22;2.92;;;21.60;62.30;;;;;;6041015;28;95171;-67
2022/03/08 11:53:26;;;;;;;3.20;2.90;;;21.60;62.30;;;;;;6039751;28;94054;-67
2022/03/08 11:56:28;;;;;;;3.33;3.00;;;21.60;62.30;;;;;;6046826;28;94533;-67
2022/03/08 11:59:30;;;;;;;3.13;2.75;;;21.60;62.20;;;;;;6046101;28;94085;-68
2022/03/08 12:02:34;;;;;;;2.83;2.63;;;21.70;62.30;;;;;;6049931;28;94089;-67
2022/03/08 12:05:59;;;;;;;2.70;2.50;;;21.60;62.30;;;;;;6058856;28;94021;-67
2022/03/08 12:09:12;;;;;;;2.75;2.55;;;21.60;62.20;;;;;;6043692;28;94147;-67
2022/03/08 12:12:21;;;;;;;3.15;2.85;;;21.60;62.30;;;;;;6050005;28;93452;-68
2022/03/08 12:15:23;;;;;;;2.78;2.58;;;21.60;62.30;;;;;;6048822;28;94458;-68
2022/03/08 12:18:34;;;;;;;2.90;2.70;;;21.60;62.30;;;;;;6057987;28;94202;-68
2022/03/08 12:21:39;;;;;;;2.63;2.42;;;21.60;62.30;;;;;;6046564;28;95048;-68
2022/03/08 12:24:45;;;;;;;2.70;2.50;;;21.60;62.30;;;;;;6057940;28;94124;-68
2022/03/08 12:27:49;;;;;;;2.55;2.35;;;21.70;62.40;;;;;;6047546;28;93975;-68
2022/03/08 12:31:07;;;;;;;2.70;2.50;;;21.60;62.40;;;;;;6045102;28;93953;-67
2022/03/08 12:34:11;;;;;;;2.67;2.47;;;21.60;62.40;;;;;;6047120;28;93029;-68
2022/03/08 12:37:16;;;;;;;2.40;2.20;;;21.70;62.50;;;;;;6044252;28;94560;-68
2022/03/08 12:40:27;;;;;;;2.50;2.30;;;21.60;62.40;;;;;;6051096;28;93027;-68
2022/03/08 12:43:29;;;;;;;2.50;2.30;;;21.60;62.40;;;;;;6034022;28;93316;-68
2022/03/08 12:46:32;;;;;;;2.80;2.60;;;21.60;62.30;;;;;;6057168;28;94212;-68
2022/03/08 12:49:36;;;;;;;2.50;2.30;;;21.60;62.30;;;;;;6044824;28;94476;-68
2022/03/08 12:52:41;;;;;;;2.25;2.05;;;21.60;62.40;;;;;;6035395;28;95102;-68
2022/03/08 12:55:46;;;;;;;2.40;2.20;;;21.70;62.50;;;;;;6035680;28;94186;-68
2022/03/08 12:58:48;;;;;;;2.63;2.30;;;21.70;62.40;;;;;;6044579;28;94483;-68
2022/03/08 13:01:50;;;;;;;2.55;2.35;;;21.70;62.40;;;;;;6050594;28;94218;-68
2022/03/08 13:05:04;;;;;;;2.97;2.40;;;21.60;62.30;;;;;;6061362;28;94504;-68
2022/03/08 13:08:06;;;;;;;2.47;2.28;;;21.70;62.50;;;;;;6056885;28;92911;-68
2022/03/08 13:11:10;;;;;;;2.45;2.25;;;21.60;62.30;;;;;;6040671;28;94150;-68
2022/03/08 13:14:20;;;;;;;2.35;2.15;;;21.60;62.40;;;;;;6040996;28;93390;-68
2022/03/08 13:17:29;;;;;;;2.40;2.20;;;21.70;62.50;;;;;;6056199;28;94450;-67
2022/03/08 13:20:35;;;;;;;2.38;2.17;;;21.60;62.40;;;;;;6053923;28;94033;-68
2022/03/08 13:23:40;;;;;;;2.30;2.10;;;21.60;62.40;;;;;;6049412;28;95159;-67
2022/03/08 13:26:51;;;;;;;2.30;2.10;;;21.70;62.50;;;;;;6046288;28;94227;-68
2022/03/08 13:29:53;;;;;;;2.47;2.28;;;21.70;62.50;;;;;;6055882;28;94303;-68
2022/03/08 13:33:17;;;;;;;2.38;2.17;;;21.60;62.40;;;;;;6057960;28;94090;-68
2022/03/08 13:36:21;;;;;;;2.45;2.25;;;21.60;63.30;;;;;;6048241;28;94233;-67
2022/03/08 13:39:23;;;;;;;2.40;2.20;;;21.60;62.40;;;;;;6063507;28;94510;-68
2022/03/08 13:42:29;;;;;;;2.20;2.00;;;21.70;62.50;;;;;;6058907;28;93017;-68
2022/03/08 13:45:49;;;;;;;1.92;1.80;;;21.60;62.40;;;;;;6053522;28;93370;-67
2022/03/08 13:48:58;;;;;;;2.00;1.90;;;21.70;62.40;;;;;;6041755;28;94252;-68
2022/03/08 13:52:01;;;;;;;2.00;1.90;;;21.70;62.40;;;;;;6050671;28;94083;-68
2022/03/08 13:55:05;;;;;;;2.05;1.90;;;21.60;62.30;;;;;;6054736;28;95172;-68
2022/03/08 13:58:09;;;;;;;2.60;2.08;;;21.70;62.50;;;;;;6048744;28;93897;-68
2022/03/08 14:01:14;;;;;;;2.03;1.92;;;21.70;62.50;;;;;;6050041;28;94124;-68
2022/03/08 14:04:26;;;;;;;2.10;1.90;;;21.60;62.40;;;;;;6065292;28;94148;-68
2022/03/08 14:07:30;;;;;;;2.22;2.03;;;21.70;62.40;;;;;;6052138;28;94279;-68
2022/03/08 14:10:32;;;;;;;2.00;1.80;;;21.70;62.40;;;;;;6047787;28;94081;-67
2022/03/08 14:13:36;;;;;;;2.03;1.90;;;21.70;62.40;;;;;;6057741;28;94486;-68
2022/03/08 14:16:44;;;;;;;2.10;1.90;;;21.70;62.30;;;;;;6061037;28;92303;-67
2022/03/08 14:19:52;;;;;;;2.08;1.88;;;21.70;62.40;;;;;;6050916;28;96146;-68
2022/03/08 14:23:04;;;;;;;2.17;1.98;;;21.70;62.40;;;;;;6046683;28;93361;-67
2022/03/08 14:26:07;;;;;;;2.13;1.92;;;21.70;62.40;;;;;;6057957;28;95377;-68
2022/03/08 14:29:13;;;;;;;2.20;1.95;;;21.70;62.40;;;;;;6059321;28;94067;-68
2022/03/08 14:32:16;;;;;;;1.92;1.77;;;21.70;62.50;;;;;;6059725;28;95013;-68
2022/03/08 14:35:19;;;;;;;2.13;1.95;;;21.70;62.50;;;;;;6047742;28;94444;-68
2022/03/08 14:38:22;;;;;;;1.88;1.77;;;21.70;62.40;;;;;;6059241;28;94124;-68
2022/03/08 14:41:25;;;;;;;1.85;1.73;;;21.70;62.40;;;;;;6059383;28;94158;-68
2022/03/08 14:44:29;;;;;;;2.10;1.90;;;21.70;62.50;;;;;;6049682;28;94408;-67
2022/03/08 14:47:33;;;;;;;2.10;1.90;;;21.70;62.50;;;;;;6051752;28;93974;-68
2022/03/08 14:50:35;;;;;;;1.90;1.70;;;21.70;62.50;;;;;;6045625;28;94150;-68
2022/03/08 14:53:39;;;;;;;1.95;1.75;;;21.70;62.50;;;;;;6050847;28;94247;-68
2022/03/08 14:56:41;;;;;;;2.28;2.08;;;21.70;62.50;;;;;;6049573;28;95440;-68
2022/03/08 14:59:44;;;;;;;1.90;1.70;;;21.70;62.50;;;;;;6037674;28;94473;-68
2022/03/08 15:02:46;;;;;;;2.03;1.83;;;21.70;62.50;;;;;;6051328;28;94532;-68
2022/03/08 15:05:48;;;;;;;1.80;1.70;;;21.70;62.50;;;;;;6064786;28;94191;-68
2022/03/08 15:08:52;;;;;;;1.77;1.67;;;21.70;62.50;;;;;;6049471;28;94504;-68
2022/03/08 15:11:54;;;;;;;1.50;1.40;;;21.70;62.50;;;;;;6037251;28;94482;-68
2022/03/08 15:14:57;;;;;;;1.70;1.60;;;21.70;62.50;;;;;;6036895;28;93106;-68
2022/03/08 15:17:59;;;;;;;2.00;1.80;;;21.70;62.50;;;;;;6058296;28;93507;-68
2022/03/08 15:21:01;;;;;;;1.90;1.70;;;21.70;62.50;;;;;;6047468;28;94139;-68
2022/03/08 15:24:06;;;;;;;1.70;1.60;;;21.70;62.50;;;;;;6038635;28;94157;-68
2022/03/08 15:27:08;;;;;;;1.80;1.65;;;21.70;62.50;;;;;;6042425;28;95091;-68
2022/03/08 15:30:11;;;;;;;1.67;1.58;;;21.70;62.50;;;;;;6055087;28;94092;-68
2022/03/08 15:33:13;;;;;;;1.75;1.65;;;21.70;62.50;;;;;;6047129;28;94065;-68
2022/03/08 15:36:16;;;;;;;1.90;1.80;;;21.70;62.50;;;;;;6037502;28;94109;-68
2022/03/08 15:39:20;;;;;;;1.85;1.50;;;21.70;62.50;;;;;;6054527;28;94023;-68
2022/03/08 15:42:22;;;;;;;1.88;1.70;;;21.70;62.50;;;;;;6050428;28;93016;-69
2022/03/08 15:45:24;;;;;;;1.70;1.60;;;21.70;62.50;;;;;;6058679;28;93019;-68
2022/03/08 15:48:26;;;;;;;1.70;1.60;;;21.70;62.50;;;;;;6038897;28;93376;-68
2022/03/08 15:51:28;;;;;;;1.80;1.70;;;21.70;62.50;;;;;;6058633;28;94429;-68